To NAV CANADA Home Page Login to a new session Search on AWWS site Disclaimer Vers la page française équivalente Tips FAQ What's new on the site To the Forecasts and Observations / NOTAM section To "File a Flight Plan" website Publications and other links Update of the User's profile FIC Telephone Numbers My Weather Data Folder Route Weather Data Regional Weather Data Local Weather Data To the Forecasts and Observations / NOTAM section
Request Generated 03/18/2019 at 19:35:36 UTC . Weather information available at that time is displayed.

METAR/TAF

WINDSOR/ON    (show WxCam)

METAR CYQG 181900Z AUTO 23008KT 200V280 9SM OVC070 04/M05 A3032 RMK SLP275=
METAR CYQG 181800Z AUTO VRB04KT 9SM BKN060 BKN071 OVC220 04/M07 A3033 RMK SLP279=
METAR CYQG 181700Z AUTO 14005KT 140V220 9SM SCT043 BKN060 03/M05 A3034 RMK SLP282=

TAF CYQG 181739Z 1818/1918 VRB03KT P6SM SCT040 BKN060 TEMPO 1818/1902
5SM -SHSNRA BKN040 BKN060
FM190200 20008KT P6SM BKN040 TEMPO 1902/1904 3SM -SHSN BKN020
OVC040 PROB30 1902/1904 2SM -SHSN
FM190400 23006KT P6SM FEW040
RMK FCST BASED ON AUTO OBS. NXT FCST BY 190000Z=

LONDON/ON    

METAR CYXU 181900Z 31013G19KT 15SM SCT036 02/M06 A3028 RMK CU4 SH DIST SE-SW SLP270=
METAR CYXU 181800Z 32012G18KT 15SM FEW029 BKN034 02/M06 A3028 RMK CF1CU5 CF TR SH DIST SE-SW SLP270=
METAR CYXU 181700Z 28010G17KT 260V330 15SM FEW029 SCT036 SCT060 SCT250 02/M06 A3028 RMK CF1CU4SC1CI1 CF TR SC TR CI TR SLP269=

TAF CYXU 181739Z 1818/1918 31012KT P6SM SCT040 TEMPO 1818/1820 BKN040
BECMG 1822/1824 VRB03KT
FM190300 22008KT P6SM SCT030 BKN070 TEMPO 1904/1908 2SM -SHSN
BKN020 OVC070
FM190800 VRB03KT P6SM FEW015 FEW050
FM191000 VRB03KT 6SM BR FEW008
FM191400 27005KT P6SM FEW025
FM191700 27008KT P6SM BKN040
RMK NXT FCST BY 190000Z=

SARNIA (CHRIS HADFIELD)/ON    (show WxCam)

METAR CYZR 181900Z AUTO 01007KT 350V060 9SM CLR 03/M03 A3030 RMK SLP272=
METAR CYZR 181800Z AUTO 03009KT 9SM CLR 03/M02 A3032 RMK SLP276=
SPECI CYZR 181724Z AUTO 03011G16KT 9SM SCT055 03/M02 A3032 RMK WSHFT AT 1714Z SLP277=
METAR CYZR 181700Z AUTO 33007KT 9SM FEW055 04/M06 A3031 RMK SLP274=

TAF CYZR 181338Z 1814/1902 32008KT P6SM SKC
FM181800 36008KT P6SM FEW040
FM182000 36008KT P6SM BKN050 TEMPO 1820/1824 5SM -SHRASN OVC040
BECMG 1822/1824 25006KT
RMK FCST BASED ON AUTO OBS. NXT FCST BY 182000Z=

KITCHENER/WATERLOO/ON    (show WxCam)

METAR CYKF 181900Z AUTO 30015KT 9SM SCT039 02/M08 A3025 RMK SLP258=
METAR CYKF 181800Z AUTO 28017KT 9SM BKN038 02/M06 A3025 RMK SLP260=
METAR CYKF 181700Z AUTO 30015G20KT 9SM FEW030 BKN042 BKN055 M00/M07 A3025 RMK SLP260=

TAF CYKF 181338Z 1814/1902 27008KT P6SM BKN070 TEMPO 1814/1817 SCT070
FM181700 30012KT P6SM SCT040 TEMPO 1817/1823 BKN040
FM182300 27008KT P6SM FEW040
BECMG 1900/1902 23008KT
RMK FCST BASED ON AUTO OBS. NXT FCST BY 182000Z=

HAMILTON/ON    

METAR CYHM 181900Z 30014G21KT 15SM BKN044 02/M08 A3025 RMK SC5 SLP256=
METAR CYHM 181800Z 29014G21KT 15SM BKN046 02/M08 A3026 RMK SC7 SLP258=
METAR CYHM 181700Z 27011G17KT 15SM FEW015 SCT034 BKN070 03/M06 A3026 RMK CF1CU3AC2 CF TR SLP258=

TAF CYHM 181739Z 1818/1918 28010G20KT P6SM SCT040 BKN070 TEMPO
1818/1823 P6SM -SHSNRA BKN040 BKN070
FM182300 28008KT P6SM FEW040
FM190500 23008KT P6SM SCT030 BKN070 TEMPO 1906/1910 2SM -SHSN
BKN020 OVC070
FM191000 24006KT P6SM FEW015 FEW030
FM191200 25006KT 6SM BR FEW008
FM191500 26008KT P6SM FEW030
RMK NXT FCST BY 190000Z=

TORONTO/LESTER B. PEARSON INTL/ON    

SPECI CYYZ 181916Z 30011G19KT 15SM FEW040 SCT055 02/M11 A3025 RMK CF1CU2 SLP254=
METAR CYYZ 181900Z 28012G21KT 15SM FEW040 SCT055 03/M10 A3025 RMK CF1CU2 SLP253=
METAR CYYZ 181800Z 30020G26KT 15SM SCT040 SCT065 02/M08 A3026 RMK CU3SC1 SH DIST E-S SLP256=
SPECI CYYZ 181735Z 29015G26KT 15SM SCT040 BKN065 02/M08 A3026 RMK CU4SC2 SH DIST E-S SLP256=
METAR CYYZ 181700Z 30016G21KT 15SM -SHSN BKN040 OVC065 02/M07 A3025 RMK CU5SC3 SLP254=

TAF CYYZ 181739Z 1818/1924 30012G22KT P6SM SCT040 BKN060
FM182300 29010KT P6SM FEW050
FM190300 28008KT P6SM BKN070 TEMPO 1904/1908 2SM -SHSN BKN020
OVC070
FM190800 28005KT P6SM FEW015 FEW040
FM191000 27005KT P6SM FEW008
FM191500 31008KT P6SM SCT030 BKN070
FM191700 29006KT 6SM -SHRASN BKN030 BKN060
BECMG 1917/1919 16006KT
FM192300 15006KT P6SM FEW040
RMK NXT FCST BY 182100Z=
Your time UTC time
Weather data provided by Environment Canada and NAV CANADA